sensor_id;sensor_type;location;lat;lon;timestamp;P1;durP1;ratioP1;P2;durP2;ratioP2
51048;SDS011;37084;55.228;36.450;2022-08-03T00:02:51;9.05;;;6.68;;
51048;SDS011;37084;55.228;36.450;2022-08-03T00:05:52;11.65;;;6.88;;
51048;SDS011;37084;55.228;36.450;2022-08-03T00:08:53;9.70;;;6.90;;
51048;SDS011;37084;55.228;36.450;2022-08-03T00:11:54;12.73;;;7.50;;
51048;SDS011;37084;55.228;36.450;2022-08-03T00:14:55;12.50;;;7.00;;
51048;SDS011;37084;55.228;36.450;2022-08-03T00:17:57;11.57;;;6.57;;
51048;SDS011;37084;55.228;36.450;2022-08-03T00:20:58;10.40;;;7.05;;
51048;SDS011;37084;55.228;36.450;2022-08-03T00:23:59;8.27;;;6.45;;
51048;SDS011;37084;55.228;36.450;2022-08-03T00:27:01;9.57;;;7.60;;
51048;SDS011;37084;55.228;36.450;2022-08-03T00:30:02;10.25;;;7.43;;
51048;SDS011;37084;55.228;36.450;2022-08-03T00:33:04;8.60;;;7.43;;
51048;SDS011;37084;55.228;36.450;2022-08-03T00:36:05;8.63;;;6.45;;
51048;SDS011;37084;55.228;36.450;2022-08-03T00:39:06;11.05;;;7.57;;
51048;SDS011;37084;55.228;36.450;2022-08-03T00:42:08;8.88;;;7.13;;
51048;SDS011;37084;55.228;36.450;2022-08-03T00:45:09;9.98;;;8.05;;
51048;SDS011;37084;55.228;36.450;2022-08-03T00:48:11;10.63;;;6.95;;
51048;SDS011;37084;55.228;36.450;2022-08-03T00:51:12;12.57;;;10.00;;
51048;SDS011;37084;55.228;36.450;2022-08-03T00:54:13;17.65;;;13.57;;
51048;SDS011;37084;55.228;36.450;2022-08-03T00:57:15;14.23;;;9.88;;
51048;SDS011;37084;55.228;36.450;2022-08-03T01:00:17;15.73;;;10.45;;
51048;SDS011;37084;55.228;36.450;2022-08-03T01:03:20;17.08;;;12.45;;
51048;SDS011;37084;55.228;36.450;2022-08-03T01:06:31;20.42;;;14.18;;
51048;SDS011;37084;55.228;36.450;2022-08-03T01:09:48;19.90;;;13.18;;
51048;SDS011;37084;55.228;36.450;2022-08-03T01:13:02;18.65;;;13.85;;
51048;SDS011;37084;55.228;36.450;2022-08-03T01:19:58;14.60;;;10.32;;
51048;SDS011;37084;55.228;36.450;2022-08-03T01:29:35;15.13;;;9.90;;
51048;SDS011;37084;55.228;36.450;2022-08-03T01:33:00;14.18;;;10.45;;
51048;SDS011;37084;55.228;36.450;2022-08-03T01:36:08;15.98;;;10.20;;
51048;SDS011;37084;55.228;36.450;2022-08-03T01:39:15;15.73;;;10.07;;
51048;SDS011;37084;55.228;36.450;2022-08-03T01:42:17;14.45;;;9.48;;
51048;SDS011;37084;55.228;36.450;2022-08-03T01:45:19;13.85;;;9.35;;
51048;SDS011;37084;55.228;36.450;2022-08-03T01:48:22;13.45;;;7.78;;
51048;SDS011;37084;55.228;36.450;2022-08-03T01:51:24;14.65;;;8.05;;
51048;SDS011;37084;55.228;36.450;2022-08-03T01:54:26;11.38;;;7.10;;
51048;SDS011;37084;55.228;36.450;2022-08-03T01:57:28;14.07;;;8.60;;
51048;SDS011;37084;55.228;36.450;2022-08-03T02:00:30;12.50;;;6.05;;
51048;SDS011;37084;55.228;36.450;2022-08-03T02:03:33;8.63;;;6.65;;
51048;SDS011;37084;55.228;36.450;2022-08-03T02:09:38;9.43;;;6.93;;
51048;SDS011;37084;55.228;36.450;2022-08-03T02:16:08;11.88;;;7.03;;
51048;SDS011;37084;55.228;36.450;2022-08-03T02:19:10;12.00;;;7.07;;
51048;SDS011;37084;55.228;36.450;2022-08-03T02:25:17;10.52;;;6.93;;
51048;SDS011;37084;55.228;36.450;2022-08-03T02:28:19;12.40;;;7.88;;
51048;SDS011;37084;55.228;36.450;2022-08-03T02:31:22;10.48;;;7.50;;
51048;SDS011;37084;55.228;36.450;2022-08-03T02:34:25;11.93;;;8.07;;
51048;SDS011;37084;55.228;36.450;2022-08-03T02:37:30;11.40;;;8.27;;
51048;SDS011;37084;55.228;36.450;2022-08-03T02:40:32;11.38;;;8.00;;
51048;SDS011;37084;55.228;36.450;2022-08-03T02:43:34;14.05;;;7.40;;
51048;SDS011;37084;55.228;36.450;2022-08-03T02:46:37;11.48;;;7.70;;
51048;SDS011;37084;55.228;36.450;2022-08-03T02:49:41;11.93;;;7.28;;
51048;SDS011;37084;55.228;36.450;2022-08-03T02:52:45;8.90;;;6.97;;
51048;SDS011;37084;55.228;36.450;2022-08-03T02:55:47;12.25;;;7.22;;
51048;SDS011;37084;55.228;36.450;2022-08-03T02:58:49;9.85;;;7.50;;
51048;SDS011;37084;55.228;36.450;2022-08-03T03:01:51;9.45;;;6.90;;
51048;SDS011;37084;55.228;36.450;2022-08-03T03:04:53;9.75;;;7.20;;
51048;SDS011;37084;55.228;36.450;2022-08-03T03:07:55;10.68;;;6.40;;
51048;SDS011;37084;55.228;36.450;2022-08-03T03:10:57;11.88;;;7.03;;
51048;SDS011;37084;55.228;36.450;2022-08-03T03:14:00;10.85;;;7.63;;
51048;SDS011;37084;55.228;36.450;2022-08-03T03:17:02;10.73;;;7.07;;
51048;SDS011;37084;55.228;36.450;2022-08-03T03:20:05;8.82;;;7.25;;
51048;SDS011;37084;55.228;36.450;2022-08-03T03:23:07;10.35;;;6.50;;
51048;SDS011;37084;55.228;36.450;2022-08-03T03:26:09;11.70;;;6.72;;
51048;SDS011;37084;55.228;36.450;2022-08-03T03:29:10;10.93;;;7.20;;
51048;SDS011;37084;55.228;36.450;2022-08-03T03:32:11;11.30;;;6.78;;
51048;SDS011;37084;55.228;36.450;2022-08-03T03:35:15;9.10;;;6.45;;
51048;SDS011;37084;55.228;36.450;2022-08-03T03:38:17;10.07;;;6.88;;
51048;SDS011;37084;55.228;36.450;2022-08-03T03:41:19;18.83;;;10.80;;
51048;SDS011;37084;55.228;36.450;2022-08-03T03:44:20;8.35;;;5.88;;
51048;SDS011;37084;55.228;36.450;2022-08-03T03:47:21;9.10;;;6.22;;
51048;SDS011;37084;55.228;36.450;2022-08-03T03:50:23;8.02;;;6.38;;
51048;SDS011;37084;55.228;36.450;2022-08-03T03:53:24;9.23;;;6.07;;
51048;SDS011;37084;55.228;36.450;2022-08-03T03:56:25;8.35;;;6.63;;
51048;SDS011;37084;55.228;36.450;2022-08-03T03:59:27;8.85;;;6.63;;
51048;SDS011;37084;55.228;36.450;2022-08-03T04:02:28;7.28;;;5.22;;
51048;SDS011;37084;55.228;36.450;2022-08-03T04:05:30;8.65;;;7.07;;
51048;SDS011;37084;55.228;36.450;2022-08-03T04:08:50;10.15;;;5.80;;
51048;SDS011;37084;55.228;36.450;2022-08-03T04:12:15;7.90;;;6.28;;
51048;SDS011;37084;55.228;36.450;2022-08-03T04:15:19;8.80;;;6.07;;
51048;SDS011;37084;55.228;36.450;2022-08-03T04:18:22;10.43;;;6.13;;
51048;SDS011;37084;55.228;36.450;2022-08-03T04:21:28;11.13;;;7.10;;
51048;SDS011;37084;55.228;36.450;2022-08-03T04:24:32;11.55;;;7.38;;
51048;SDS011;37084;55.228;36.450;2022-08-03T04:27:38;11.25;;;6.35;;
51048;SDS011;37084;55.228;36.450;2022-08-03T04:30:40;12.02;;;6.85;;
51048;SDS011;37084;55.228;36.450;2022-08-03T04:33:47;11.00;;;7.10;;
51048;SDS011;37084;55.228;36.450;2022-08-03T04:36:48;9.15;;;6.05;;
51048;SDS011;37084;55.228;36.450;2022-08-03T04:39:52;10.23;;;6.20;;
51048;SDS011;37084;55.228;36.450;2022-08-03T04:42:54;10.73;;;7.15;;
51048;SDS011;37084;55.228;36.450;2022-08-03T04:45:58;9.98;;;7.10;;
51048;SDS011;37084;55.228;36.450;2022-08-03T04:49:00;8.60;;;6.53;;
51048;SDS011;37084;55.228;36.450;2022-08-03T04:52:02;10.20;;;6.95;;
51048;SDS011;37084;55.228;36.450;2022-08-03T04:55:04;9.82;;;6.43;;
51048;SDS011;37084;55.228;36.450;2022-08-03T04:58:05;10.63;;;6.85;;
51048;SDS011;37084;55.228;36.450;2022-08-03T05:01:06;15.30;;;9.35;;
51048;SDS011;37084;55.228;36.450;2022-08-03T05:04:08;10.48;;;6.85;;
51048;SDS011;37084;55.228;36.450;2022-08-03T05:07:09;10.52;;;6.65;;
51048;SDS011;37084;55.228;36.450;2022-08-03T05:10:11;10.27;;;6.63;;
51048;SDS011;37084;55.228;36.450;2022-08-03T05:13:13;9.65;;;6.90;;
51048;SDS011;37084;55.228;36.450;2022-08-03T05:16:14;10.38;;;7.68;;
51048;SDS011;37084;55.228;36.450;2022-08-03T05:19:15;9.27;;;6.75;;
51048;SDS011;37084;55.228;36.450;2022-08-03T05:22:17;10.77;;;6.43;;
51048;SDS011;37084;55.228;36.450;2022-08-03T05:25:20;13.23;;;6.97;;
51048;SDS011;37084;55.228;36.450;2022-08-03T05:28:21;11.10;;;6.85;;
51048;SDS011;37084;55.228;36.450;2022-08-03T05:31:22;9.57;;;6.47;;
51048;SDS011;37084;55.228;36.450;2022-08-03T05:34:23;9.98;;;6.47;;
51048;SDS011;37084;55.228;36.450;2022-08-03T05:37:25;10.05;;;6.80;;
51048;SDS011;37084;55.228;36.450;2022-08-03T05:40:27;12.00;;;6.95;;
51048;SDS011;37084;55.228;36.450;2022-08-03T05:43:28;9.85;;;6.10;;
51048;SDS011;37084;55.228;36.450;2022-08-03T05:46:31;8.30;;;6.57;;
51048;SDS011;37084;55.228;36.450;2022-08-03T05:49:32;11.32;;;6.50;;
51048;SDS011;37084;55.228;36.450;2022-08-03T05:52:34;11.32;;;6.72;;
51048;SDS011;37084;55.228;36.450;2022-08-03T05:55:36;9.80;;;6.38;;
51048;SDS011;37084;55.228;36.450;2022-08-03T05:58:38;9.35;;;6.80;;
51048;SDS011;37084;55.228;36.450;2022-08-03T06:01:41;9.65;;;6.63;;
51048;SDS011;37084;55.228;36.450;2022-08-03T06:04:44;11.45;;;6.95;;
51048;SDS011;37084;55.228;36.450;2022-08-03T06:07:46;12.43;;;6.95;;
51048;SDS011;37084;55.228;36.450;2022-08-03T06:10:51;10.50;;;6.82;;
51048;SDS011;37084;55.228;36.450;2022-08-03T06:14:00;10.93;;;6.93;;
51048;SDS011;37084;55.228;36.450;2022-08-03T06:20:46;9.95;;;6.53;;
51048;SDS011;37084;55.228;36.450;2022-08-03T06:23:47;9.27;;;6.30;;
51048;SDS011;37084;55.228;36.450;2022-08-03T06:26:49;7.75;;;6.28;;
51048;SDS011;37084;55.228;36.450;2022-08-03T06:29:50;8.10;;;5.65;;
51048;SDS011;37084;55.228;36.450;2022-08-03T06:32:51;14.52;;;8.95;;
51048;SDS011;37084;55.228;36.450;2022-08-03T06:35:53;8.68;;;6.63;;
51048;SDS011;37084;55.228;36.450;2022-08-03T06:38:56;8.95;;;5.70;;
51048;SDS011;37084;55.228;36.450;2022-08-03T06:44:59;10.80;;;6.40;;
51048;SDS011;37084;55.228;36.450;2022-08-03T06:48:02;7.95;;;6.88;;
51048;SDS011;37084;55.228;36.450;2022-08-03T06:51:06;8.15;;;5.63;;
51048;SDS011;37084;55.228;36.450;2022-08-03T06:54:07;8.52;;;5.70;;
51048;SDS011;37084;55.228;36.450;2022-08-03T06:57:08;7.40;;;4.90;;
51048;SDS011;37084;55.228;36.450;2022-08-03T07:00:16;7.22;;;5.55;;
51048;SDS011;37084;55.228;36.450;2022-08-03T07:04:14;9.18;;;5.63;;
51048;SDS011;37084;55.228;36.450;2022-08-03T07:08:27;7.05;;;5.00;;
51048;SDS011;37084;55.228;36.450;2022-08-03T07:11:44;6.35;;;5.40;;
51048;SDS011;37084;55.228;36.450;2022-08-03T07:17:55;6.00;;;4.43;;
51048;SDS011;37084;55.228;36.450;2022-08-03T07:20:58;6.70;;;3.97;;
51048;SDS011;37084;55.228;36.450;2022-08-03T07:24:00;4.82;;;3.72;;
51048;SDS011;37084;55.228;36.450;2022-08-03T07:27:01;7.00;;;4.00;;
51048;SDS011;37084;55.228;36.450;2022-08-03T07:30:04;7.00;;;3.80;;
51048;SDS011;37084;55.228;36.450;2022-08-03T07:33:07;5.32;;;3.58;;
51048;SDS011;37084;55.228;36.450;2022-08-03T07:36:08;5.03;;;3.90;;
51048;SDS011;37084;55.228;36.450;2022-08-03T07:39:09;6.15;;;4.00;;
51048;SDS011;37084;55.228;36.450;2022-08-03T07:42:10;4.32;;;3.60;;
51048;SDS011;37084;55.228;36.450;2022-08-03T07:45:12;7.43;;;3.45;;
51048;SDS011;37084;55.228;36.450;2022-08-03T07:48:15;6.82;;;4.10;;
51048;SDS011;37084;55.228;36.450;2022-08-03T07:51:18;6.47;;;3.70;;
51048;SDS011;37084;55.228;36.450;2022-08-03T07:54:19;8.32;;;3.70;;
51048;SDS011;37084;55.228;36.450;2022-08-03T07:57:22;6.43;;;3.67;;
51048;SDS011;37084;55.228;36.450;2022-08-03T08:03:27;9.55;;;4.45;;
51048;SDS011;37084;55.228;36.450;2022-08-03T08:06:28;9.30;;;4.32;;
51048;SDS011;37084;55.228;36.450;2022-08-03T08:09:33;7.32;;;4.28;;
51048;SDS011;37084;55.228;36.450;2022-08-03T08:12:35;5.85;;;3.95;;
51048;SDS011;37084;55.228;36.450;2022-08-03T08:15:37;8.23;;;5.15;;
51048;SDS011;37084;55.228;36.450;2022-08-03T08:18:39;6.78;;;4.05;;
51048;SDS011;37084;55.228;36.450;2022-08-03T08:21:42;7.75;;;4.18;;
51048;SDS011;37084;55.228;36.450;2022-08-03T08:24:46;9.45;;;4.60;;
51048;SDS011;37084;55.228;36.450;2022-08-03T08:27:49;7.75;;;4.20;;
51048;SDS011;37084;55.228;36.450;2022-08-03T08:30:50;7.13;;;3.75;;
51048;SDS011;37084;55.228;36.450;2022-08-03T08:33:51;5.43;;;3.78;;
51048;SDS011;37084;55.228;36.450;2022-08-03T08:36:53;6.43;;;3.53;;
51048;SDS011;37084;55.228;36.450;2022-08-03T08:39:57;6.05;;;3.75;;
51048;SDS011;37084;55.228;36.450;2022-08-03T08:42:59;6.53;;;3.70;;
51048;SDS011;37084;55.228;36.450;2022-08-03T08:46:06;10.65;;;4.50;;
51048;SDS011;37084;55.228;36.450;2022-08-03T08:49:08;5.45;;;3.30;;
51048;SDS011;37084;55.228;36.450;2022-08-03T08:52:14;4.32;;;3.40;;
51048;SDS011;37084;55.228;36.450;2022-08-03T08:55:20;4.68;;;3.38;;
51048;SDS011;37084;55.228;36.450;2022-08-03T09:01:26;7.47;;;3.30;;
51048;SDS011;37084;55.228;36.450;2022-08-03T09:04:29;6.15;;;3.78;;
51048;SDS011;37084;55.228;36.450;2022-08-03T09:07:31;6.75;;;3.72;;
51048;SDS011;37084;55.228;36.450;2022-08-03T09:13:41;5.13;;;4.13;;
51048;SDS011;37084;55.228;36.450;2022-08-03T09:16:58;6.07;;;3.60;;
51048;SDS011;37084;55.228;36.450;2022-08-03T09:20:06;5.07;;;3.72;;
51048;SDS011;37084;55.228;36.450;2022-08-03T09:23:11;5.57;;;3.45;;
51048;SDS011;37084;55.228;36.450;2022-08-03T09:26:20;6.70;;;3.60;;
51048;SDS011;37084;55.228;36.450;2022-08-03T09:29:27;5.40;;;3.60;;
51048;SDS011;37084;55.228;36.450;2022-08-03T09:32:32;3.95;;;3.53;;
51048;SDS011;37084;55.228;36.450;2022-08-03T09:35:41;8.20;;;3.53;;
51048;SDS011;37084;55.228;36.450;2022-08-03T09:38:53;4.90;;;3.72;;
51048;SDS011;37084;55.228;36.450;2022-08-03T09:42:06;6.18;;;4.00;;
51048;SDS011;37084;55.228;36.450;2022-08-03T09:45:24;6.03;;;3.72;;
51048;SDS011;37084;55.228;36.450;2022-08-03T09:48:30;6.80;;;3.92;;
51048;SDS011;37084;55.228;36.450;2022-08-03T09:51:34;6.43;;;3.90;;
51048;SDS011;37084;55.228;36.450;2022-08-03T09:54:35;8.70;;;5.20;;
51048;SDS011;37084;55.228;36.450;2022-08-03T09:57:39;6.43;;;4.63;;
51048;SDS011;37084;55.228;36.450;2022-08-03T10:00:52;5.35;;;4.75;;
51048;SDS011;37084;55.228;36.450;2022-08-03T10:04:10;5.25;;;4.45;;
51048;SDS011;37084;55.228;36.450;2022-08-03T10:07:14;6.90;;;5.18;;
51048;SDS011;37084;55.228;36.450;2022-08-03T10:10:16;5.57;;;4.28;;
51048;SDS011;37084;55.228;36.450;2022-08-03T10:13:20;4.93;;;3.63;;
51048;SDS011;37084;55.228;36.450;2022-08-03T10:16:23;5.20;;;3.97;;
51048;SDS011;37084;55.228;36.450;2022-08-03T10:19:25;5.57;;;4.38;;
51048;SDS011;37084;55.228;36.450;2022-08-03T10:22:31;4.65;;;4.13;;
51048;SDS011;37084;55.228;36.450;2022-08-03T10:25:35;7.50;;;4.13;;
51048;SDS011;37084;55.228;36.450;2022-08-03T10:28:49;7.53;;;4.47;;
51048;SDS011;37084;55.228;36.450;2022-08-03T10:31:57;7.60;;;4.45;;
51048;SDS011;37084;55.228;36.450;2022-08-03T10:35:06;6.95;;;4.38;;
51048;SDS011;37084;55.228;36.450;2022-08-03T10:38:17;5.55;;;4.45;;
51048;SDS011;37084;55.228;36.450;2022-08-03T10:41:20;5.85;;;5.00;;
51048;SDS011;37084;55.228;36.450;2022-08-03T10:44:26;6.82;;;4.88;;
51048;SDS011;37084;55.228;36.450;2022-08-03T10:47:39;6.65;;;4.53;;
51048;SDS011;37084;55.228;36.450;2022-08-03T10:50:43;4.78;;;3.97;;
51048;SDS011;37084;55.228;36.450;2022-08-03T10:53:45;6.60;;;4.32;;
51048;SDS011;37084;55.228;36.450;2022-08-03T10:56:50;6.15;;;5.00;;
51048;SDS011;37084;55.228;36.450;2022-08-03T11:00:10;7.68;;;5.28;;
51048;SDS011;37084;55.228;36.450;2022-08-03T11:03:15;11.02;;;9.63;;
51048;SDS011;37084;55.228;36.450;2022-08-03T11:06:18;8.57;;;4.85;;
51048;SDS011;37084;55.228;36.450;2022-08-03T11:09:21;7.30;;;4.55;;
51048;SDS011;37084;55.228;36.450;2022-08-03T11:12:28;6.10;;;4.57;;
51048;SDS011;37084;55.228;36.450;2022-08-03T11:15:31;6.20;;;4.88;;
51048;SDS011;37084;55.228;36.450;2022-08-03T11:18:35;7.57;;;4.70;;
51048;SDS011;37084;55.228;36.450;2022-08-03T11:34:32;5.88;;;4.20;;
51048;SDS011;37084;55.228;36.450;2022-08-03T11:40:59;6.00;;;3.72;;
51048;SDS011;37084;55.228;36.450;2022-08-03T11:44:02;6.13;;;3.40;;
51048;SDS011;37084;55.228;36.450;2022-08-03T11:47:04;5.53;;;3.03;;
51048;SDS011;37084;55.228;36.450;2022-08-03T11:50:06;5.78;;;3.67;;
51048;SDS011;37084;55.228;36.450;2022-08-03T11:53:11;8.43;;;3.45;;
51048;SDS011;37084;55.228;36.450;2022-08-03T11:56:19;5.88;;;3.08;;
51048;SDS011;37084;55.228;36.450;2022-08-03T11:59:30;5.80;;;3.30;;
51048;SDS011;37084;55.228;36.450;2022-08-03T12:02:37;4.57;;;3.67;;
51048;SDS011;37084;55.228;36.450;2022-08-03T12:05:48;6.47;;;3.28;;
51048;SDS011;37084;55.228;36.450;2022-08-03T12:08:51;5.25;;;3.88;;
51048;SDS011;37084;55.228;36.450;2022-08-03T12:11:56;6.55;;;4.65;;
51048;SDS011;37084;55.228;36.450;2022-08-03T12:14:58;5.25;;;3.63;;
51048;SDS011;37084;55.228;36.450;2022-08-03T12:18:01;6.57;;;3.88;;
51048;SDS011;37084;55.228;36.450;2022-08-03T12:24:11;5.13;;;3.55;;
51048;SDS011;37084;55.228;36.450;2022-08-03T12:27:26;6.20;;;3.17;;
51048;SDS011;37084;55.228;36.450;2022-08-03T12:30:32;6.30;;;3.45;;
51048;SDS011;37084;55.228;36.450;2022-08-03T12:37:03;7.38;;;3.97;;
51048;SDS011;37084;55.228;36.450;2022-08-03T12:40:05;3.95;;;3.45;;
51048;SDS011;37084;55.228;36.450;2022-08-03T12:43:13;5.95;;;3.28;;
51048;SDS011;37084;55.228;36.450;2022-08-03T12:46:16;5.55;;;3.90;;
51048;SDS011;37084;55.228;36.450;2022-08-03T12:49:18;7.10;;;3.67;;
51048;SDS011;37084;55.228;36.450;2022-08-03T12:52:21;6.53;;;3.22;;
51048;SDS011;37084;55.228;36.450;2022-08-03T12:55:23;5.72;;;3.30;;
51048;SDS011;37084;55.228;36.450;2022-08-03T12:58:32;7.18;;;4.15;;
51048;SDS011;37084;55.228;36.450;2022-08-03T13:01:35;6.97;;;3.63;;
51048;SDS011;37084;55.228;36.450;2022-08-03T13:04:38;6.05;;;4.07;;
51048;SDS011;37084;55.228;36.450;2022-08-03T13:07:43;5.30;;;3.67;;
51048;SDS011;37084;55.228;36.450;2022-08-03T13:10:46;7.65;;;3.75;;
51048;SDS011;37084;55.228;36.450;2022-08-03T13:13:49;6.80;;;3.95;;
51048;SDS011;37084;55.228;36.450;2022-08-03T13:16:50;6.70;;;4.05;;
51048;SDS011;37084;55.228;36.450;2022-08-03T13:19:54;7.70;;;4.03;;
51048;SDS011;37084;55.228;36.450;2022-08-03T13:22:59;6.63;;;3.90;;
51048;SDS011;37084;55.228;36.450;2022-08-03T13:26:01;5.53;;;3.30;;
51048;SDS011;37084;55.228;36.450;2022-08-03T13:29:04;5.15;;;3.83;;
51048;SDS011;37084;55.228;36.450;2022-08-03T13:32:05;7.47;;;3.72;;
51048;SDS011;37084;55.228;36.450;2022-08-03T13:35:08;9.55;;;4.43;;
51048;SDS011;37084;55.228;36.450;2022-08-03T13:38:12;5.38;;;3.70;;
51048;SDS011;37084;55.228;36.450;2022-08-03T13:41:23;6.25;;;3.90;;
51048;SDS011;37084;55.228;36.450;2022-08-03T13:44:25;6.72;;;3.60;;
51048;SDS011;37084;55.228;36.450;2022-08-03T13:47:28;6.07;;;4.00;;
51048;SDS011;37084;55.228;36.450;2022-08-03T13:53:33;5.20;;;3.70;;
51048;SDS011;37084;55.228;36.450;2022-08-03T13:56:35;5.43;;;3.97;;
51048;SDS011;37084;55.228;36.450;2022-08-03T13:59:36;7.05;;;4.03;;
51048;SDS011;37084;55.228;36.450;2022-08-03T14:02:39;7.45;;;4.05;;
51048;SDS011;37084;55.228;36.450;2022-08-03T14:05:41;5.85;;;4.03;;
51048;SDS011;37084;55.228;36.450;2022-08-03T14:08:44;5.07;;;3.63;;
51048;SDS011;37084;55.228;36.450;2022-08-03T14:11:48;5.90;;;3.97;;
51048;SDS011;37084;55.228;36.450;2022-08-03T14:14:50;7.28;;;4.28;;
51048;SDS011;37084;55.228;36.450;2022-08-03T14:17:51;7.68;;;4.22;;
51048;SDS011;37084;55.228;36.450;2022-08-03T14:20:57;6.22;;;4.57;;
51048;SDS011;37084;55.228;36.450;2022-08-03T14:23:59;7.75;;;4.00;;
51048;SDS011;37084;55.228;36.450;2022-08-03T14:27:00;6.63;;;3.85;;
51048;SDS011;37084;55.228;36.450;2022-08-03T14:30:02;7.28;;;4.07;;
51048;SDS011;37084;55.228;36.450;2022-08-03T14:33:04;7.28;;;4.00;;
51048;SDS011;37084;55.228;36.450;2022-08-03T14:36:05;5.97;;;4.05;;
51048;SDS011;37084;55.228;36.450;2022-08-03T14:39:07;8.85;;;3.92;;
51048;SDS011;37084;55.228;36.450;2022-08-03T14:45:11;7.55;;;3.97;;
51048;SDS011;37084;55.228;36.450;2022-08-03T14:48:17;8.13;;;4.35;;
51048;SDS011;37084;55.228;36.450;2022-08-03T14:51:23;9.00;;;4.32;;
51048;SDS011;37084;55.228;36.450;2022-08-03T14:54:24;7.45;;;4.15;;
51048;SDS011;37084;55.228;36.450;2022-08-03T14:57:26;8.27;;;4.07;;
51048;SDS011;37084;55.228;36.450;2022-08-03T15:00:31;7.22;;;4.03;;
51048;SDS011;37084;55.228;36.450;2022-08-03T15:03:36;6.90;;;4.47;;
51048;SDS011;37084;55.228;36.450;2022-08-03T15:06:42;8.70;;;4.53;;
51048;SDS011;37084;55.228;36.450;2022-08-03T15:09:45;9.20;;;4.75;;
51048;SDS011;37084;55.228;36.450;2022-08-03T15:12:47;8.48;;;4.88;;
51048;SDS011;37084;55.228;36.450;2022-08-03T15:15:48;8.63;;;4.80;;
51048;SDS011;37084;55.228;36.450;2022-08-03T15:18:51;6.07;;;4.05;;
51048;SDS011;37084;55.228;36.450;2022-08-03T15:21:52;9.60;;;4.50;;
51048;SDS011;37084;55.228;36.450;2022-08-03T15:24:53;6.45;;;4.47;;
51048;SDS011;37084;55.228;36.450;2022-08-03T15:27:55;9.43;;;4.78;;
51048;SDS011;37084;55.228;36.450;2022-08-03T15:30:57;7.82;;;4.80;;
51048;SDS011;37084;55.228;36.450;2022-08-03T15:33:58;7.22;;;4.40;;
51048;SDS011;37084;55.228;36.450;2022-08-03T15:37:01;8.60;;;4.78;;
51048;SDS011;37084;55.228;36.450;2022-08-03T15:40:05;10.98;;;4.88;;
51048;SDS011;37084;55.228;36.450;2022-08-03T15:43:07;8.40;;;5.15;;
51048;SDS011;37084;55.228;36.450;2022-08-03T15:46:11;7.50;;;5.05;;
51048;SDS011;37084;55.228;36.450;2022-08-03T15:49:15;9.80;;;5.18;;
51048;SDS011;37084;55.228;36.450;2022-08-03T15:55:18;8.60;;;5.03;;
51048;SDS011;37084;55.228;36.450;2022-08-03T15:58:20;8.50;;;5.47;;
51048;SDS011;37084;55.228;36.450;2022-08-03T16:01:21;9.82;;;5.40;;
51048;SDS011;37084;55.228;36.450;2022-08-03T16:04:25;7.88;;;5.75;;
51048;SDS011;37084;55.228;36.450;2022-08-03T16:07:26;7.75;;;5.20;;
51048;SDS011;37084;55.228;36.450;2022-08-03T16:10:48;7.40;;;5.05;;
51048;SDS011;37084;55.228;36.450;2022-08-03T16:13:49;7.90;;;4.82;;
51048;SDS011;37084;55.228;36.450;2022-08-03T16:16:53;8.65;;;5.78;;
51048;SDS011;37084;55.228;36.450;2022-08-03T16:19:55;8.27;;;5.45;;
51048;SDS011;37084;55.228;36.450;2022-08-03T16:22:56;6.97;;;5.20;;
51048;SDS011;37084;55.228;36.450;2022-08-03T16:26:01;8.10;;;4.93;;
51048;SDS011;37084;55.228;36.450;2022-08-03T16:29:04;6.88;;;5.65;;
51048;SDS011;37084;55.228;36.450;2022-08-03T16:32:06;7.05;;;5.80;;
51048;SDS011;37084;55.228;36.450;2022-08-03T16:35:08;9.98;;;5.85;;
51048;SDS011;37084;55.228;36.450;2022-08-03T16:38:09;8.25;;;6.22;;
51048;SDS011;37084;55.228;36.450;2022-08-03T16:41:12;7.35;;;5.82;;
51048;SDS011;37084;55.228;36.450;2022-08-03T16:44:14;8.80;;;5.60;;
51048;SDS011;37084;55.228;36.450;2022-08-03T16:47:15;9.63;;;5.93;;
51048;SDS011;37084;55.228;36.450;2022-08-03T16:50:18;9.75;;;5.85;;
51048;SDS011;37084;55.228;36.450;2022-08-03T16:53:21;8.25;;;5.82;;
51048;SDS011;37084;55.228;36.450;2022-08-03T16:56:22;10.82;;;6.40;;
51048;SDS011;37084;55.228;36.450;2022-08-03T16:59:24;9.18;;;5.68;;
51048;SDS011;37084;55.228;36.450;2022-08-03T17:02:26;8.07;;;5.50;;
51048;SDS011;37084;55.228;36.450;2022-08-03T17:05:30;6.97;;;5.72;;
51048;SDS011;37084;55.228;36.450;2022-08-03T17:08:33;11.40;;;6.50;;
51048;SDS011;37084;55.228;36.450;2022-08-03T17:11:34;8.75;;;6.13;;
51048;SDS011;37084;55.228;36.450;2022-08-03T17:14:40;11.07;;;6.18;;
51048;SDS011;37084;55.228;36.450;2022-08-03T17:17:43;8.88;;;6.00;;
51048;SDS011;37084;55.228;36.450;2022-08-03T17:20:48;7.65;;;5.70;;
51048;SDS011;37084;55.228;36.450;2022-08-03T17:23:57;10.60;;;5.63;;
51048;SDS011;37084;55.228;36.450;2022-08-03T17:27:04;8.40;;;5.60;;
51048;SDS011;37084;55.228;36.450;2022-08-03T17:30:09;9.02;;;6.25;;
51048;SDS011;37084;55.228;36.450;2022-08-03T17:33:14;7.78;;;6.22;;
51048;SDS011;37084;55.228;36.450;2022-08-03T17:36:17;9.45;;;6.05;;
51048;SDS011;37084;55.228;36.450;2022-08-03T17:39:23;8.70;;;6.40;;
51048;SDS011;37084;55.228;36.450;2022-08-03T17:42:27;9.85;;;7.30;;
51048;SDS011;37084;55.228;36.450;2022-08-03T17:45:29;12.40;;;9.50;;
51048;SDS011;37084;55.228;36.450;2022-08-03T17:48:31;11.80;;;6.70;;
51048;SDS011;37084;55.228;36.450;2022-08-03T17:51:40;8.05;;;6.10;;
51048;SDS011;37084;55.228;36.450;2022-08-03T17:55:00;10.68;;;5.78;;
51048;SDS011;37084;55.228;36.450;2022-08-03T17:58:19;10.73;;;6.93;;
51048;SDS011;37084;55.228;36.450;2022-08-03T18:01:51;14.27;;;9.43;;
51048;SDS011;37084;55.228;36.450;2022-08-03T18:05:14;14.60;;;7.40;;
51048;SDS011;37084;55.228;36.450;2022-08-03T18:08:28;11.75;;;7.85;;
51048;SDS011;37084;55.228;36.450;2022-08-03T18:11:33;14.02;;;7.50;;
51048;SDS011;37084;55.228;36.450;2022-08-03T18:15:08;9.38;;;7.22;;
51048;SDS011;37084;55.228;36.450;2022-08-03T18:18:05;10.40;;;6.78;;
51048;SDS011;37084;55.228;36.450;2022-08-03T18:21:11;13.52;;;9.20;;
51048;SDS011;37084;55.228;36.450;2022-08-03T18:24:19;11.95;;;7.55;;
51048;SDS011;37084;55.228;36.450;2022-08-03T18:27:22;12.55;;;8.23;;
51048;SDS011;37084;55.228;36.450;2022-08-03T18:30:26;11.40;;;6.50;;
51048;SDS011;37084;55.228;36.450;2022-08-03T18:33:30;9.70;;;6.40;;
51048;SDS011;37084;55.228;36.450;2022-08-03T18:36:49;10.95;;;6.90;;
51048;SDS011;37084;55.228;36.450;2022-08-03T18:40:03;17.75;;;12.77;;
51048;SDS011;37084;55.228;36.450;2022-08-03T18:43:07;17.42;;;10.68;;
51048;SDS011;37084;55.228;36.450;2022-08-03T18:46:37;12.88;;;9.35;;
51048;SDS011;37084;55.228;36.450;2022-08-03T18:56:26;10.50;;;7.65;;
51048;SDS011;37084;55.228;36.450;2022-08-03T18:59:39;10.45;;;7.88;;
51048;SDS011;37084;55.228;36.450;2022-08-03T19:02:56;12.20;;;8.85;;
51048;SDS011;37084;55.228;36.450;2022-08-03T19:06:07;13.95;;;7.57;;
51048;SDS011;37084;55.228;36.450;2022-08-03T19:09:42;12.80;;;8.98;;
51048;SDS011;37084;55.228;36.450;2022-08-03T19:12:48;14.70;;;9.43;;
51048;SDS011;37084;55.228;36.450;2022-08-03T19:15:55;12.13;;;7.68;;
51048;SDS011;37084;55.228;36.450;2022-08-03T19:18:58;12.98;;;8.38;;
51048;SDS011;37084;55.228;36.450;2022-08-03T19:22:03;12.20;;;8.32;;
51048;SDS011;37084;55.228;36.450;2022-08-03T19:25:06;11.52;;;7.57;;
51048;SDS011;37084;55.228;36.450;2022-08-03T19:28:09;11.23;;;8.25;;
51048;SDS011;37084;55.228;36.450;2022-08-03T19:31:11;12.10;;;8.45;;